sensor_id;sensor_type;location;lat;lon;timestamp;P1;durP1;ratioP1;P2;durP2;ratioP2
25231;SDS011;13176;51.140;6.290;2023-11-21T00:01:05;66.88;;;61.85;;
25231;SDS011;13176;51.140;6.290;2023-11-21T00:03:34;67.65;;;62.72;;
25231;SDS011;13176;51.140;6.290;2023-11-21T00:06:02;73.03;;;67.90;;
25231;SDS011;13176;51.140;6.290;2023-11-21T00:08:29;76.43;;;70.70;;
25231;SDS011;13176;51.140;6.290;2023-11-21T00:10:56;81.65;;;75.45;;
25231;SDS011;13176;51.140;6.290;2023-11-21T00:13:22;89.90;;;83.60;;
25231;SDS011;13176;51.140;6.290;2023-11-21T00:15:49;89.38;;;82.95;;
25231;SDS011;13176;51.140;6.290;2023-11-21T00:18:15;95.43;;;89.10;;
25231;SDS011;13176;51.140;6.290;2023-11-21T00:20:42;102.82;;;96.03;;
25231;SDS011;13176;51.140;6.290;2023-11-21T00:23:09;117.07;;;109.35;;
25231;SDS011;13176;51.140;6.290;2023-11-21T00:25:35;139.93;;;130.93;;
25231;SDS011;13176;51.140;6.290;2023-11-21T00:28:02;139.10;;;130.13;;
25231;SDS011;13176;51.140;6.290;2023-11-21T00:30:29;168.02;;;156.98;;
25231;SDS011;13176;51.140;6.290;2023-11-21T00:32:57;174.35;;;163.02;;
25231;SDS011;13176;51.140;6.290;2023-11-21T00:35:23;179.80;;;167.70;;
25231;SDS011;13176;51.140;6.290;2023-11-21T00:37:50;206.02;;;193.27;;
25231;SDS011;13176;51.140;6.290;2023-11-21T00:40:16;226.80;;;212.18;;
25231;SDS011;13176;51.140;6.290;2023-11-21T00:42:47;228.27;;;214.25;;
25231;SDS011;13176;51.140;6.290;2023-11-21T00:45:13;226.82;;;211.52;;
25231;SDS011;13176;51.140;6.290;2023-11-21T00:47:40;236.23;;;221.57;;
25231;SDS011;13176;51.140;6.290;2023-11-21T00:50:06;231.15;;;216.60;;
25231;SDS011;13176;51.140;6.290;2023-11-21T00:52:33;203.40;;;190.55;;
25231;SDS011;13176;51.140;6.290;2023-11-21T00:55:00;218.18;;;204.25;;
25231;SDS011;13176;51.140;6.290;2023-11-21T00:57:26;210.90;;;196.70;;
25231;SDS011;13176;51.140;6.290;2023-11-21T00:59:53;214.00;;;199.75;;
25231;SDS011;13176;51.140;6.290;2023-11-21T01:02:19;209.45;;;195.82;;
25231;SDS011;13176;51.140;6.290;2023-11-21T01:04:46;214.30;;;200.82;;
25231;SDS011;13176;51.140;6.290;2023-11-21T01:07:14;224.70;;;210.38;;
25231;SDS011;13176;51.140;6.290;2023-11-21T01:09:40;223.48;;;208.27;;
25231;SDS011;13176;51.140;6.290;2023-11-21T01:12:07;221.95;;;206.07;;
25231;SDS011;13176;51.140;6.290;2023-11-21T01:14:33;248.38;;;232.25;;
25231;SDS011;13176;51.140;6.290;2023-11-21T01:17:00;216.60;;;202.38;;
25231;SDS011;13176;51.140;6.290;2023-11-21T01:19:26;245.90;;;229.90;;
25231;SDS011;13176;51.140;6.290;2023-11-21T01:21:55;237.35;;;222.38;;
25231;SDS011;13176;51.140;6.290;2023-11-21T01:24:24;263.02;;;245.10;;
25231;SDS011;13176;51.140;6.290;2023-11-21T01:26:51;266.92;;;249.52;;
25231;SDS011;13176;51.140;6.290;2023-11-21T01:29:18;266.92;;;249.10;;
25231;SDS011;13176;51.140;6.290;2023-11-21T01:31:44;291.17;;;271.27;;
25231;SDS011;13176;51.140;6.290;2023-11-21T01:34:11;308.23;;;288.33;;
25231;SDS011;13176;51.140;6.290;2023-11-21T01:36:37;315.70;;;294.85;;
25231;SDS011;13176;51.140;6.290;2023-11-21T01:39:03;333.65;;;311.92;;
25231;SDS011;13176;51.140;6.290;2023-11-21T01:41:34;315.13;;;295.27;;
25231;SDS011;13176;51.140;6.290;2023-11-21T01:44:01;322.75;;;302.17;;
25231;SDS011;13176;51.140;6.290;2023-11-21T01:46:28;333.95;;;311.98;;
25231;SDS011;13176;51.140;6.290;2023-11-21T01:48:55;318.02;;;297.58;;
25231;SDS011;13176;51.140;6.290;2023-11-21T01:51:21;334.77;;;314.08;;
25231;SDS011;13176;51.140;6.290;2023-11-21T01:53:48;308.88;;;289.30;;
25231;SDS011;13176;51.140;6.290;2023-11-21T01:56:15;324.65;;;304.52;;
25231;SDS011;13176;51.140;6.290;2023-11-21T01:58:42;280.20;;;263.10;;
25231;SDS011;13176;51.140;6.290;2023-11-21T02:01:09;259.65;;;243.52;;
25231;SDS011;13176;51.140;6.290;2023-11-21T02:03:36;271.73;;;254.85;;
25231;SDS011;13176;51.140;6.290;2023-11-21T02:06:02;253.18;;;237.85;;
25231;SDS011;13176;51.140;6.290;2023-11-21T02:08:29;264.70;;;248.48;;
25231;SDS011;13176;51.140;6.290;2023-11-21T02:10:56;288.90;;;271.35;;
25231;SDS011;13176;51.140;6.290;2023-11-21T02:13:23;257.38;;;241.35;;
25231;SDS011;13176;51.140;6.290;2023-11-21T02:15:50;279.08;;;261.92;;
25231;SDS011;13176;51.140;6.290;2023-11-21T02:18:18;279.05;;;262.23;;
25231;SDS011;13176;51.140;6.290;2023-11-21T02:20:45;282.60;;;265.13;;
25231;SDS011;13176;51.140;6.290;2023-11-21T02:23:12;279.05;;;261.83;;
25231;SDS011;13176;51.140;6.290;2023-11-21T02:25:39;266.30;;;249.77;;
25231;SDS011;13176;51.140;6.290;2023-11-21T02:28:05;260.75;;;244.77;;
25231;SDS011;13176;51.140;6.290;2023-11-21T02:30:33;259.92;;;243.93;;
25231;SDS011;13176;51.140;6.290;2023-11-21T02:33:00;254.82;;;239.40;;
25231;SDS011;13176;51.140;6.290;2023-11-21T02:35:27;267.83;;;251.85;;
25231;SDS011;13176;51.140;6.290;2023-11-21T02:37:54;252.57;;;237.48;;
25231;SDS011;13176;51.140;6.290;2023-11-21T02:40:21;261.85;;;245.68;;
25231;SDS011;13176;51.140;6.290;2023-11-21T02:42:47;259.30;;;243.65;;
25231;SDS011;13176;51.140;6.290;2023-11-21T02:45:15;239.95;;;225.52;;
25231;SDS011;13176;51.140;6.290;2023-11-21T02:47:44;240.45;;;225.95;;
25231;SDS011;13176;51.140;6.290;2023-11-21T02:50:11;253.57;;;238.27;;
25231;SDS011;13176;51.140;6.290;2023-11-21T02:52:38;253.02;;;237.35;;
25231;SDS011;13176;51.140;6.290;2023-11-21T02:55:06;258.45;;;242.65;;
25231;SDS011;13176;51.140;6.290;2023-11-21T02:57:35;250.75;;;235.55;;
25231;SDS011;13176;51.140;6.290;2023-11-21T03:00:02;274.40;;;257.05;;
25231;SDS011;13176;51.140;6.290;2023-11-21T03:02:29;260.35;;;243.50;;
25231;SDS011;13176;51.140;6.290;2023-11-21T03:04:55;259.80;;;243.10;;
25231;SDS011;13176;51.140;6.290;2023-11-21T03:07:22;247.75;;;231.05;;
25231;SDS011;13176;51.140;6.290;2023-11-21T03:09:48;238.90;;;223.20;;
25231;SDS011;13176;51.140;6.290;2023-11-21T03:12:15;246.40;;;230.10;;
25231;SDS011;13176;51.140;6.290;2023-11-21T03:14:42;244.90;;;229.00;;
25231;SDS011;13176;51.140;6.290;2023-11-21T03:17:08;258.95;;;241.68;;
25231;SDS011;13176;51.140;6.290;2023-11-21T03:19:35;245.15;;;229.25;;
25231;SDS011;13176;51.140;6.290;2023-11-21T03:22:01;247.68;;;231.27;;
25231;SDS011;13176;51.140;6.290;2023-11-21T03:24:27;230.05;;;215.18;;
25231;SDS011;13176;51.140;6.290;2023-11-21T03:26:54;218.75;;;204.07;;
25231;SDS011;13176;51.140;6.290;2023-11-21T03:29:21;218.98;;;205.05;;
25231;SDS011;13176;51.140;6.290;2023-11-21T03:31:47;215.98;;;201.80;;
25231;SDS011;13176;51.140;6.290;2023-11-21T03:34:26;227.10;;;212.27;;
25231;SDS011;13176;51.140;6.290;2023-11-21T03:36:54;222.35;;;208.20;;
25231;SDS011;13176;51.140;6.290;2023-11-21T03:39:21;236.13;;;220.63;;
25231;SDS011;13176;51.140;6.290;2023-11-21T03:41:48;243.93;;;228.23;;
25231;SDS011;13176;51.140;6.290;2023-11-21T03:44:15;255.73;;;239.40;;
25231;SDS011;13176;51.140;6.290;2023-11-21T03:46:41;270.65;;;251.48;;
25231;SDS011;13176;51.140;6.290;2023-11-21T03:49:08;271.33;;;253.32;;
25231;SDS011;13176;51.140;6.290;2023-11-21T03:51:34;274.75;;;256.95;;
25231;SDS011;13176;51.140;6.290;2023-11-21T03:54:01;306.95;;;285.85;;
25231;SDS011;13176;51.140;6.290;2023-11-21T03:56:27;307.45;;;284.77;;
25231;SDS011;13176;51.140;6.290;2023-11-21T03:58:54;323.33;;;301.33;;
25231;SDS011;13176;51.140;6.290;2023-11-21T04:01:24;325.20;;;303.30;;
25231;SDS011;13176;51.140;6.290;2023-11-21T04:03:51;321.58;;;299.55;;
25231;SDS011;13176;51.140;6.290;2023-11-21T04:06:18;357.73;;;333.23;;
25231;SDS011;13176;51.140;6.290;2023-11-21T04:08:44;385.52;;;358.85;;
25231;SDS011;13176;51.140;6.290;2023-11-21T04:11:12;357.60;;;333.58;;
25231;SDS011;13176;51.140;6.290;2023-11-21T04:13:39;362.08;;;337.77;;
25231;SDS011;13176;51.140;6.290;2023-11-21T04:16:06;383.75;;;357.85;;
25231;SDS011;13176;51.140;6.290;2023-11-21T04:18:36;398.70;;;371.50;;
25231;SDS011;13176;51.140;6.290;2023-11-21T04:21:07;392.77;;;366.10;;
25231;SDS011;13176;51.140;6.290;2023-11-21T04:23:34;399.33;;;371.75;;
25231;SDS011;13176;51.140;6.290;2023-11-21T04:26:01;381.92;;;356.63;;
25231;SDS011;13176;51.140;6.290;2023-11-21T04:28:28;392.13;;;365.60;;
25231;SDS011;13176;51.140;6.290;2023-11-21T04:30:55;394.98;;;368.80;;
25231;SDS011;13176;51.140;6.290;2023-11-21T04:33:21;389.98;;;363.83;;
25231;SDS011;13176;51.140;6.290;2023-11-21T04:35:48;393.02;;;366.38;;
25231;SDS011;13176;51.140;6.290;2023-11-21T04:38:15;416.00;;;388.08;;
25231;SDS011;13176;51.140;6.290;2023-11-21T04:40:41;442.10;;;412.20;;
25231;SDS011;13176;51.140;6.290;2023-11-21T04:43:08;450.00;;;419.45;;
25231;SDS011;13176;51.140;6.290;2023-11-21T04:45:34;446.10;;;416.15;;
25231;SDS011;13176;51.140;6.290;2023-11-21T04:48:00;455.70;;;424.13;;
25231;SDS011;13176;51.140;6.290;2023-11-21T04:50:27;454.38;;;423.52;;
25231;SDS011;13176;51.140;6.290;2023-11-21T04:52:53;487.20;;;453.35;;
25231;SDS011;13176;51.140;6.290;2023-11-21T04:55:20;501.45;;;467.50;;
25231;SDS011;13176;51.140;6.290;2023-11-21T04:57:47;495.80;;;462.13;;
25231;SDS011;13176;51.140;6.290;2023-11-21T05:00:13;487.80;;;454.25;;
25231;SDS011;13176;51.140;6.290;2023-11-21T05:02:42;473.35;;;440.45;;
25231;SDS011;13176;51.140;6.290;2023-11-21T05:05:10;473.30;;;441.75;;
25231;SDS011;13176;51.140;6.290;2023-11-21T05:07:38;475.75;;;444.45;;
25231;SDS011;13176;51.140;6.290;2023-11-21T05:10:08;451.67;;;420.15;;
25231;SDS011;13176;51.140;6.290;2023-11-21T05:12:39;421.15;;;392.45;;
25231;SDS011;13176;51.140;6.290;2023-11-21T05:15:06;450.73;;;419.63;;
25231;SDS011;13176;51.140;6.290;2023-11-21T05:17:36;432.60;;;403.05;;
25231;SDS011;13176;51.140;6.290;2023-11-21T05:20:03;430.02;;;401.08;;
25231;SDS011;13176;51.140;6.290;2023-11-21T05:22:34;394.90;;;368.90;;
25231;SDS011;13176;51.140;6.290;2023-11-21T05:25:01;431.60;;;402.38;;
25231;SDS011;13176;51.140;6.290;2023-11-21T05:27:30;432.90;;;403.48;;
25231;SDS011;13176;51.140;6.290;2023-11-21T05:30:00;448.65;;;417.90;;
25231;SDS011;13176;51.140;6.290;2023-11-21T05:32:32;442.33;;;412.52;;
25231;SDS011;13176;51.140;6.290;2023-11-21T05:34:59;429.40;;;400.70;;
25231;SDS011;13176;51.140;6.290;2023-11-21T05:37:25;463.00;;;431.30;;
25231;SDS011;13176;51.140;6.290;2023-11-21T05:39:53;454.17;;;424.45;;
25231;SDS011;13176;51.140;6.290;2023-11-21T05:42:54;372.65;;;348.15;;
25231;SDS011;13176;51.140;6.290;2023-11-21T05:45:22;416.52;;;388.27;;
25231;SDS011;13176;51.140;6.290;2023-11-21T05:47:48;407.83;;;379.48;;
25231;SDS011;13176;51.140;6.290;2023-11-21T05:50:15;452.33;;;421.27;;
25231;SDS011;13176;51.140;6.290;2023-11-21T05:52:43;448.60;;;417.40;;
25231;SDS011;13176;51.140;6.290;2023-11-21T05:55:11;460.77;;;428.98;;
25231;SDS011;13176;51.140;6.290;2023-11-21T05:57:38;463.23;;;431.60;;
25231;SDS011;13176;51.140;6.290;2023-11-21T06:00:06;461.73;;;429.20;;
25231;SDS011;13176;51.140;6.290;2023-11-21T06:02:53;389.67;;;362.92;;
25231;SDS011;13176;51.140;6.290;2023-11-21T06:05:22;459.67;;;427.50;;
25231;SDS011;13176;51.140;6.290;2023-11-21T06:07:54;430.95;;;400.95;;
25231;SDS011;13176;51.140;6.290;2023-11-21T06:10:43;390.58;;;363.60;;
25231;SDS011;13176;51.140;6.290;2023-11-21T06:13:10;451.55;;;419.48;;
25231;SDS011;13176;51.140;6.290;2023-11-21T06:15:46;454.45;;;422.02;;
25231;SDS011;13176;51.140;6.290;2023-11-21T06:18:23;424.60;;;395.42;;
25231;SDS011;13176;51.140;6.290;2023-11-21T06:20:50;462.40;;;430.45;;
25231;SDS011;13176;51.140;6.290;2023-11-21T06:23:16;488.45;;;453.25;;
25231;SDS011;13176;51.140;6.290;2023-11-21T06:25:43;498.17;;;463.23;;
25231;SDS011;13176;51.140;6.290;2023-11-21T06:28:09;463.15;;;431.38;;
25231;SDS011;13176;51.140;6.290;2023-11-21T06:30:36;512.22;;;476.15;;
25231;SDS011;13176;51.140;6.290;2023-11-21T06:33:02;486.05;;;452.55;;
25231;SDS011;13176;51.140;6.290;2023-11-21T06:35:29;490.58;;;456.25;;
25231;SDS011;13176;51.140;6.290;2023-11-21T06:37:59;471.95;;;439.13;;
25231;SDS011;13176;51.140;6.290;2023-11-21T06:40:25;464.88;;;431.83;;
25231;SDS011;13176;51.140;6.290;2023-11-21T06:42:52;462.63;;;430.42;;
25231;SDS011;13176;51.140;6.290;2023-11-21T06:45:18;451.13;;;420.08;;
25231;SDS011;13176;51.140;6.290;2023-11-21T06:47:46;441.27;;;409.77;;
25231;SDS011;13176;51.140;6.290;2023-11-21T06:50:13;435.60;;;405.15;;
25231;SDS011;13176;51.140;6.290;2023-11-21T06:52:40;466.73;;;434.85;;
25231;SDS011;13176;51.140;6.290;2023-11-21T06:55:07;444.52;;;413.88;;
25231;SDS011;13176;51.140;6.290;2023-11-21T06:57:37;443.33;;;412.70;;
25231;SDS011;13176;51.140;6.290;2023-11-21T07:00:04;439.30;;;408.75;;
25231;SDS011;13176;51.140;6.290;2023-11-21T07:02:32;451.20;;;420.23;;
25231;SDS011;13176;51.140;6.290;2023-11-21T07:04:59;456.13;;;424.77;;
25231;SDS011;13176;51.140;6.290;2023-11-21T07:07:26;447.67;;;416.67;;
25231;SDS011;13176;51.140;6.290;2023-11-21T07:09:54;462.92;;;429.98;;
25231;SDS011;13176;51.140;6.290;2023-11-21T07:12:20;466.42;;;432.73;;
25231;SDS011;13176;51.140;6.290;2023-11-21T07:14:49;443.58;;;412.63;;
25231;SDS011;13176;51.140;6.290;2023-11-21T07:17:16;438.10;;;407.70;;
25231;SDS011;13176;51.140;6.290;2023-11-21T07:19:43;466.63;;;434.55;;
25231;SDS011;13176;51.140;6.290;2023-11-21T07:22:10;456.35;;;423.95;;
25231;SDS011;13176;51.140;6.290;2023-11-21T07:24:42;467.13;;;434.77;;
25231;SDS011;13176;51.140;6.290;2023-11-21T07:27:09;476.08;;;442.60;;
25231;SDS011;13176;51.140;6.290;2023-11-21T07:29:35;511.27;;;475.65;;
25231;SDS011;13176;51.140;6.290;2023-11-21T07:32:02;507.88;;;471.70;;
25231;SDS011;13176;51.140;6.290;2023-11-21T07:34:30;510.30;;;474.75;;
25231;SDS011;13176;51.140;6.290;2023-11-21T07:36:57;500.75;;;466.23;;
25231;SDS011;13176;51.140;6.290;2023-11-21T07:39:23;501.88;;;465.75;;
25231;SDS011;13176;51.140;6.290;2023-11-21T07:41:50;505.45;;;469.77;;
25231;SDS011;13176;51.140;6.290;2023-11-21T07:44:16;491.65;;;457.30;;
25231;SDS011;13176;51.140;6.290;2023-11-21T07:46:44;526.15;;;489.33;;
25231;SDS011;13176;51.140;6.290;2023-11-21T07:49:10;560.53;;;519.88;;
25231;SDS011;13176;51.140;6.290;2023-11-21T07:51:37;541.53;;;503.45;;
25231;SDS011;13176;51.140;6.290;2023-11-21T07:54:04;553.72;;;514.83;;
25231;SDS011;13176;51.140;6.290;2023-11-21T07:56:31;544.60;;;506.40;;
25231;SDS011;13176;51.140;6.290;2023-11-21T07:58:58;535.17;;;498.13;;
25231;SDS011;13176;51.140;6.290;2023-11-21T08:01:25;526.00;;;488.77;;
25231;SDS011;13176;51.140;6.290;2023-11-21T08:03:51;521.83;;;485.23;;
25231;SDS011;13176;51.140;6.290;2023-11-21T08:06:19;523.10;;;487.02;;
25231;SDS011;13176;51.140;6.290;2023-11-21T08:08:45;506.50;;;471.88;;
25231;SDS011;13176;51.140;6.290;2023-11-21T08:11:12;514.60;;;479.38;;
25231;SDS011;13176;51.140;6.290;2023-11-21T08:13:38;489.58;;;455.25;;
25231;SDS011;13176;51.140;6.290;2023-11-21T08:16:05;483.88;;;450.65;;
25231;SDS011;13176;51.140;6.290;2023-11-21T08:18:33;436.58;;;407.52;;
25231;SDS011;13176;51.140;6.290;2023-11-21T08:21:00;441.27;;;411.52;;
25231;SDS011;13176;51.140;6.290;2023-11-21T08:23:27;462.85;;;430.27;;
25231;SDS011;13176;51.140;6.290;2023-11-21T08:25:53;433.88;;;404.35;;
25231;SDS011;13176;51.140;6.290;2023-11-21T08:28:20;436.35;;;406.65;;
25231;SDS011;13176;51.140;6.290;2023-11-21T08:30:52;458.63;;;426.75;;
25231;SDS011;13176;51.140;6.290;2023-11-21T08:33:20;482.60;;;449.40;;
25231;SDS011;13176;51.140;6.290;2023-11-21T08:35:46;505.27;;;470.08;;
25231;SDS011;13176;51.140;6.290;2023-11-21T08:38:13;510.17;;;474.13;;
25231;SDS011;13176;51.140;6.290;2023-11-21T08:40:40;516.75;;;480.02;;
25231;SDS011;13176;51.140;6.290;2023-11-21T08:43:06;525.13;;;487.42;;
25231;SDS011;13176;51.140;6.290;2023-11-21T08:45:34;542.40;;;503.40;;
25231;SDS011;13176;51.140;6.290;2023-11-21T08:48:01;511.20;;;476.40;;
25231;SDS011;13176;51.140;6.290;2023-11-21T08:50:28;470.45;;;436.45;;
25231;SDS011;13176;51.140;6.290;2023-11-21T08:52:55;473.95;;;440.23;;
25231;SDS011;13176;51.140;6.290;2023-11-21T08:55:21;465.17;;;431.83;;
25231;SDS011;13176;51.140;6.290;2023-11-21T08:57:48;486.52;;;452.38;;
25231;SDS011;13176;51.140;6.290;2023-11-21T09:00:15;486.67;;;452.83;;
25231;SDS011;13176;51.140;6.290;2023-11-21T09:02:43;473.95;;;440.55;;
25231;SDS011;13176;51.140;6.290;2023-11-21T09:05:11;477.38;;;443.42;;
25231;SDS011;13176;51.140;6.290;2023-11-21T09:07:40;483.88;;;449.88;;
25231;SDS011;13176;51.140;6.290;2023-11-21T09:10:08;433.95;;;403.35;;
25231;SDS011;13176;51.140;6.290;2023-11-21T09:12:36;442.55;;;411.50;;
25231;SDS011;13176;51.140;6.290;2023-11-21T09:15:07;390.23;;;363.33;;
25231;SDS011;13176;51.140;6.290;2023-11-21T09:17:36;369.30;;;342.92;;
25231;SDS011;13176;51.140;6.290;2023-11-21T09:20:03;384.92;;;358.10;;
25231;SDS011;13176;51.140;6.290;2023-11-21T09:22:32;359.38;;;334.15;;
25231;SDS011;13176;51.140;6.290;2023-11-21T09:24:59;347.85;;;323.75;;
25231;SDS011;13176;51.140;6.290;2023-11-21T09:27:25;396.90;;;369.60;;
25231;SDS011;13176;51.140;6.290;2023-11-21T09:29:52;456.83;;;424.80;;
25231;SDS011;13176;51.140;6.290;2023-11-21T09:32:21;463.65;;;430.85;;
25231;SDS011;13176;51.140;6.290;2023-11-21T09:34:48;457.05;;;425.38;;
25231;SDS011;13176;51.140;6.290;2023-11-21T09:37:16;462.92;;;430.63;;
25231;SDS011;13176;51.140;6.290;2023-11-21T09:39:43;464.08;;;431.17;;
25231;SDS011;13176;51.140;6.290;2023-11-21T09:42:10;418.90;;;389.65;;
25231;SDS011;13176;51.140;6.290;2023-11-21T09:45:25;394.63;;;367.45;;
25231;SDS011;13176;51.140;6.290;2023-11-21T09:47:38;324.42;;;301.73;;
25231;SDS011;13176;51.140;6.290;2023-11-21T09:50:13;316.58;;;295.20;;
25231;SDS011;13176;51.140;6.290;2023-11-21T09:55:17;289.20;;;268.50;;
25231;SDS011;13176;51.140;6.290;2023-11-21T09:57:47;287.15;;;267.50;;
25231;SDS011;13176;51.140;6.290;2023-11-21T10:00:15;282.45;;;262.83;;
25231;SDS011;13176;51.140;6.290;2023-11-21T10:02:44;283.17;;;263.98;;
25231;SDS011;13176;51.140;6.290;2023-11-21T10:05:10;276.17;;;257.38;;
25231;SDS011;13176;51.140;6.290;2023-11-21T10:07:38;295.98;;;275.45;;
25231;SDS011;13176;51.140;6.290;2023-11-21T10:10:07;305.15;;;283.90;;
25231;SDS011;13176;51.140;6.290;2023-11-21T10:12:37;327.33;;;305.50;;
25231;SDS011;13176;51.140;6.290;2023-11-21T10:15:08;348.92;;;324.95;;
25231;SDS011;13176;51.140;6.290;2023-11-21T10:17:38;358.30;;;333.75;;
25231;SDS011;13176;51.140;6.290;2023-11-21T10:20:11;352.77;;;328.50;;
25231;SDS011;13176;51.140;6.290;2023-11-21T10:22:40;360.70;;;335.83;;
25231;SDS011;13176;51.140;6.290;2023-11-21T10:25:08;418.92;;;389.90;;
25231;SDS011;13176;51.140;6.290;2023-11-21T10:27:36;443.05;;;413.35;;
25231;SDS011;13176;51.140;6.290;2023-11-21T10:30:05;472.88;;;441.17;;
25231;SDS011;13176;51.140;6.290;2023-11-21T10:32:33;470.98;;;439.23;;
25231;SDS011;13176;51.140;6.290;2023-11-21T10:35:00;540.85;;;503.00;;
25231;SDS011;13176;51.140;6.290;2023-11-21T10:37:28;525.85;;;490.63;;
25231;SDS011;13176;51.140;6.290;2023-11-21T10:39:59;507.80;;;472.73;;
25231;SDS011;13176;51.140;6.290;2023-11-21T10:42:25;498.70;;;465.23;;
25231;SDS011;13176;51.140;6.290;2023-11-21T10:44:55;504.42;;;470.38;;
25231;SDS011;13176;51.140;6.290;2023-11-21T10:47:25;444.33;;;415.67;;
25231;SDS011;13176;51.140;6.290;2023-11-21T10:49:52;385.38;;;360.23;;
25231;SDS011;13176;51.140;6.290;2023-11-21T10:52:19;398.10;;;372.33;;
25231;SDS011;13176;51.140;6.290;2023-11-21T10:54:48;377.00;;;351.98;;
25231;SDS011;13176;51.140;6.290;2023-11-21T10:57:16;385.40;;;361.15;;
25231;SDS011;13176;51.140;6.290;2023-11-21T10:59:47;358.23;;;335.40;;
25231;SDS011;13176;51.140;6.290;2023-11-21T11:02:24;326.40;;;305.08;;
25231;SDS011;13176;51.140;6.290;2023-11-21T11:04:54;281.80;;;262.90;;
25231;SDS011;13176;51.140;6.290;2023-11-21T11:07:25;260.92;;;243.95;;
25231;SDS011;13176;51.140;6.290;2023-11-21T11:09:54;216.23;;;201.48;;
25231;SDS011;13176;51.140;6.290;2023-11-21T11:12:21;233.60;;;217.88;;
25231;SDS011;13176;51.140;6.290;2023-11-21T11:14:51;220.93;;;205.77;;
25231;SDS011;13176;51.140;6.290;2023-11-21T11:17:19;210.30;;;196.63;;
25231;SDS011;13176;51.140;6.290;2023-11-21T11:19:47;194.18;;;180.88;;
25231;SDS011;13176;51.140;6.290;2023-11-21T11:22:28;193.60;;;180.38;;
25231;SDS011;13176;51.140;6.290;2023-11-21T11:25:19;161.98;;;150.48;;
25231;SDS011;13176;51.140;6.290;2023-11-21T11:28:17;122.13;;;113.28;;
25231;SDS011;13176;51.140;6.290;2023-11-21T11:33:39;104.97;;;96.68;;
25231;SDS011;13176;51.140;6.290;2023-11-21T11:36:22;108.85;;;100.72;;
25231;SDS011;13176;51.140;6.290;2023-11-21T11:38:53;134.93;;;125.43;;
25231;SDS011;13176;51.140;6.290;2023-11-21T11:41:26;136.00;;;126.28;;
25231;SDS011;13176;51.140;6.290;2023-11-21T11:43:56;124.10;;;115.07;;
25231;SDS011;13176;51.140;6.290;2023-11-21T11:47:06;98.35;;;90.78;;
25231;SDS011;13176;51.140;6.290;2023-11-21T11:49:28;78.03;;;71.53;;
25231;SDS011;13176;51.140;6.290;2023-11-21T11:55:01;62.33;;;57.17;;
25231;SDS011;13176;51.140;6.290;2023-11-21T11:57:30;63.30;;;57.78;;
25231;SDS011;13176;51.140;6.290;2023-11-21T12:00:14;65.00;;;59.47;;
25231;SDS011;13176;51.140;6.290;2023-11-21T12:02:55;61.13;;;55.22;;
25231;SDS011;13176;51.140;6.290;2023-11-21T12:05:48;57.03;;;52.10;;
25231;SDS011;13176;51.140;6.290;2023-11-21T12:08:24;56.03;;;50.95;;
25231;SDS011;13176;51.140;6.290;2023-11-21T12:10:57;51.60;;;47.20;;
25231;SDS011;13176;51.140;6.290;2023-11-21T12:13:25;52.78;;;47.88;;
25231;SDS011;13176;51.140;6.290;2023-11-21T12:15:54;55.08;;;50.40;;
25231;SDS011;13176;51.140;6.290;2023-11-21T12:18:21;62.65;;;56.83;;
25231;SDS011;13176;51.140;6.290;2023-11-21T12:20:47;57.47;;;52.38;;
25231;SDS011;13176;51.140;6.290;2023-11-21T12:23:19;56.17;;;50.95;;
25231;SDS011;13176;51.140;6.290;2023-11-21T12:25:47;57.58;;;52.15;;
25231;SDS011;13176;51.140;6.290;2023-11-21T12:28:13;59.15;;;53.58;;
25231;SDS011;13176;51.140;6.290;2023-11-21T12:30:40;59.95;;;54.00;;
25231;SDS011;13176;51.140;6.290;2023-11-21T12:33:09;56.53;;;51.05;;
25231;SDS011;13176;51.140;6.290;2023-11-21T12:35:36;55.35;;;50.33;;
25231;SDS011;13176;51.140;6.290;2023-11-21T12:38:04;59.53;;;53.67;;
25231;SDS011;13176;51.140;6.290;2023-11-21T12:40:31;59.45;;;53.58;;
25231;SDS011;13176;51.140;6.290;2023-11-21T12:42:59;62.58;;;56.08;;
25231;SDS011;13176;51.140;6.290;2023-11-21T12:45:27;67.57;;;60.97;;
25231;SDS011;13176;51.140;6.290;2023-11-21T12:47:59;72.80;;;66.00;;
25231;SDS011;13176;51.140;6.290;2023-11-21T12:50:29;67.35;;;61.08;;
25231;SDS011;13176;51.140;6.290;2023-11-21T12:53:00;75.35;;;68.75;;
25231;SDS011;13176;51.140;6.290;2023-11-21T12:55:33;94.47;;;87.18;;
25231;SDS011;13176;51.140;6.290;2023-11-21T12:58:06;100.18;;;92.40;;
25231;SDS011;13176;51.140;6.290;2023-11-21T13:00:46;113.03;;;105.22;;
25231;SDS011;13176;51.140;6.290;2023-11-21T13:03:14;127.95;;;119.22;;
25231;SDS011;13176;51.140;6.290;2023-11-21T13:05:45;130.85;;;122.15;;
25231;SDS011;13176;51.140;6.290;2023-11-21T13:08:19;126.97;;;118.63;;
25231;SDS011;13176;51.140;6.290;2023-11-21T13:10:48;138.57;;;129.05;;
25231;SDS011;13176;51.140;6.290;2023-11-21T13:13:17;156.88;;;146.80;;
25231;SDS011;13176;51.140;6.290;2023-11-21T13:18:23;159.30;;;149.10;;
25231;SDS011;13176;51.140;6.290;2023-11-21T13:20:50;183.30;;;171.55;;
25231;SDS011;13176;51.140;6.290;2023-11-21T13:23:19;209.80;;;196.65;;
25231;SDS011;13176;51.140;6.290;2023-11-21T13:25:45;228.55;;;214.80;;
25231;SDS011;13176;51.140;6.290;2023-11-21T13:28:23;218.77;;;205.50;;
25231;SDS011;13176;51.140;6.290;2023-11-21T13:30:51;207.48;;;194.82;;
25231;SDS011;13176;51.140;6.290;2023-11-21T13:33:22;175.45;;;164.43;;
25231;SDS011;13176;51.140;6.290;2023-11-21T13:35:53;137.52;;;128.43;;
25231;SDS011;13176;51.140;6.290;2023-11-21T13:38:22;96.70;;;90.00;;
25231;SDS011;13176;51.140;6.290;2023-11-21T13:40:52;107.80;;;100.32;;
25231;SDS011;13176;51.140;6.290;2023-11-21T13:43:21;89.63;;;83.07;;
25231;SDS011;13176;51.140;6.290;2023-11-21T13:45:54;89.20;;;83.20;;
25231;SDS011;13176;51.140;6.290;2023-11-21T13:48:40;76.78;;;71.40;;
25231;SDS011;13176;51.140;6.290;2023-11-21T13:51:16;80.78;;;74.75;;
25231;SDS011;13176;51.140;6.290;2023-11-21T13:53:45;85.43;;;79.65;;
25231;SDS011;13176;51.140;6.290;2023-11-21T13:56:21;84.63;;;78.45;;
25231;SDS011;13176;51.140;6.290;2023-11-21T13:58:51;86.05;;;79.82;;
25231;SDS011;13176;51.140;6.290;2023-11-21T14:01:21;88.05;;;82.00;;
25231;SDS011;13176;51.140;6.290;2023-11-21T14:04:13;77.78;;;72.22;;
25231;SDS011;13176;51.140;6.290;2023-11-21T14:06:43;85.13;;;79.28;;
25231;SDS011;13176;51.140;6.290;2023-11-21T14:09:23;82.53;;;76.47;;
25231;SDS011;13176;51.140;6.290;2023-11-21T14:11:52;78.30;;;72.50;;
25231;SDS011;13176;51.140;6.290;2023-11-21T14:14:24;78.43;;;72.70;;
25231;SDS011;13176;51.140;6.290;2023-11-21T14:16:56;71.47;;;66.25;;
25231;SDS011;13176;51.140;6.290;2023-11-21T14:19:25;72.38;;;66.90;;
25231;SDS011;13176;51.140;6.290;2023-11-21T14:21:57;64.28;;;59.17;;